Piper — WDE6779 — position and weather

sailwx.info

Track history (hours):
 
Tides and Currents Weather Stations Pressure Air Temp Water Temp Dewpoint Dewpoint Depression Visibility Wind Speed Wind Dir Waves Ship Positions

Piper

Owner: ADS MARINE, LLC, MORGAN CITY, LA. More information available from US FCC via Universal Licensing System and Coast Guard Vessel Documentation Center.

Last reported at 2016-Jul-26 10:19 UTC. Time now 2016-Jul-30 09:13 UTC.
Position N 29°25' W 092°20'.

Length 40 m; draft 3 m.

Type: Cargo ship. MMSI: 367384720.

Date/timePositionNaut miles runAvg speedWind from/ knotsBaromVisibWave heightAir tempDewpointWater temp
2016-Jul-26 10:19N 29°25' W 092°20'6 7.8
2016-Jul-26 09:33N 29°31' W 092°19'4 4.5
2016-Jul-26 08:34N 29°35' W 092°18'7 6.6
2016-Jul-26 07:33N 29°41' W 092°15'7 6.7
2016-Jul-26 06:33N 29°46' W 092°10'1 0.8
2016-Jul-26 05:33N 29°47' W 092°11'0 0.1
2016-Jul-26 04:33N 29°47' W 092°11'1 0.9
2016-Jul-26 03:34N 29°47' W 092°10'0 0.0
2016-Jul-26 02:34N 29°47' W 092°10'0 0.0
2016-Jul-26 01:33N 29°47' W 092°10'0 0.0
2016-Jul-26 00:33N 29°47' W 092°10'0 0.0
2016-Jul-25 23:34N 29°47' W 092°10'0 0.0
2016-Jul-25 22:34N 29°47' W 092°10'0 0.0
2016-Jul-25 21:33N 29°47' W 092°10'0 0.0
2016-Jul-25 20:33N 29°47' W 092°10'0 0.0
2016-Jul-25 19:33N 29°47' W 092°10'0 0.0
2016-Jul-25 18:34N 29°47' W 092°10'2 1.6
2016-Jul-25 17:34N 29°47' W 092°09'1 1.4
2016-Jul-25 16:34N 29°47' W 092°10'1 1.0
2016-Jul-25 15:34N 29°47' W 092°11'0 0.0
2016-Jul-25 14:33N 29°47' W 092°11'6 5.6
2016-Jul-25 13:34N 29°42' W 092°15'8 7.6
2016-Jul-25 12:34N 29°35' W 092°18'  
2016-Jul-19 04:33N 29°40' W 092°15'5 5.4
2016-Jul-19 03:33N 29°45' W 092°13'3 2.9
2016-Jul-19 02:33N 29°47' W 092°11'0 0.0
2016-Jul-19 01:33N 29°47' W 092°11'0 0.1
2016-Jul-19 00:34N 29°47' W 092°11'0 0.0
2016-Jul-18 23:33N 29°47' W 092°11'1 0.8
2016-Jul-18 22:34N 29°47' W 092°10'0 0.0
2016-Jul-18 21:33N 29°47' W 092°10'0 0.0
2016-Jul-18 20:33N 29°47' W 092°10'0 0.0
2016-Jul-18 19:34N 29°47' W 092°10'0 0.0
2016-Jul-18 18:33N 29°47' W 092°10'0 0.0
2016-Jul-18 17:33N 29°47' W 092°10'0 0.0
2016-Jul-18 16:33N 29°47' W 092°10'0 0.0
2016-Jul-18 15:33N 29°47' W 092°10'0 0.0
2016-Jul-18 14:33N 29°47' W 092°10'0 0.0
2016-Jul-18 13:33N 29°47' W 092°10'1 0.8
2016-Jul-18 12:34N 29°47' W 092°11'0 0.4
2016-Jul-18 11:33N 29°47' W 092°11'7 6.5
2016-Jul-18 10:33N 29°41' W 092°15'7 7.0
2016-Jul-18 09:33N 29°35' W 092°18'  
Track history (hours):
 
Tides and Currents Weather Stations Pressure Air Temp Water Temp Dewpoint Dewpoint Depression Visibility Wind Speed Wind Dir Waves Ship Positions

Piper

Owner: ADS MARINE, LLC, MORGAN CITY, LA. More information available from US FCC via Universal Licensing System and Coast Guard Vessel Documentation Center.

Last reported at 2016-Jul-26 10:19 UTC. Time now 2016-Jul-30 09:13 UTC.
Position N 29°25' W 092°20'.

Length 40 m; draft 3 m.

Type: Cargo ship. MMSI: 367384720.

Date/timePositionNaut miles runAvg speedWind from/ knotsBaromVisibWave heightAir tempDewpointWater temp
2016-Jul-26 10:19N 29°25' W 092°20'6 7.8
2016-Jul-26 09:33N 29°31' W 092°19'4 4.5
2016-Jul-26 08:34N 29°35' W 092°18'7 6.6
2016-Jul-26 07:33N 29°41' W 092°15'7 6.7
2016-Jul-26 06:33N 29°46' W 092°10'1 0.8
2016-Jul-26 05:33N 29°47' W 092°11'0 0.1
2016-Jul-26 04:33N 29°47' W 092°11'1 0.9
2016-Jul-26 03:34N 29°47' W 092°10'0 0.0
2016-Jul-26 02:34N 29°47' W 092°10'0 0.0
2016-Jul-26 01:33N 29°47' W 092°10'0 0.0
2016-Jul-26 00:33N 29°47' W 092°10'0 0.0
2016-Jul-25 23:34N 29°47' W 092°10'0 0.0
2016-Jul-25 22:34N 29°47' W 092°10'0 0.0
2016-Jul-25 21:33N 29°47' W 092°10'0 0.0
2016-Jul-25 20:33N 29°47' W 092°10'0 0.0
2016-Jul-25 19:33N 29°47' W 092°10'0 0.0
2016-Jul-25 18:34N 29°47' W 092°10'2 1.6
2016-Jul-25 17:34N 29°47' W 092°09'1 1.4
2016-Jul-25 16:34N 29°47' W 092°10'1 1.0
2016-Jul-25 15:34N 29°47' W 092°11'0 0.0
2016-Jul-25 14:33N 29°47' W 092°11'6 5.6
2016-Jul-25 13:34N 29°42' W 092°15'8 7.6
2016-Jul-25 12:34N 29°35' W 092°18'  
2016-Jul-19 04:33N 29°40' W 092°15'5 5.4
2016-Jul-19 03:33N 29°45' W 092°13'3 2.9
2016-Jul-19 02:33N 29°47' W 092°11'0 0.0
2016-Jul-19 01:33N 29°47' W 092°11'0 0.1
2016-Jul-19 00:34N 29°47' W 092°11'0 0.0
2016-Jul-18 23:33N 29°47' W 092°11'1 0.8
2016-Jul-18 22:34N 29°47' W 092°10'0 0.0
2016-Jul-18 21:33N 29°47' W 092°10'0 0.0
2016-Jul-18 20:33N 29°47' W 092°10'0 0.0
2016-Jul-18 19:34N 29°47' W 092°10'0 0.0
2016-Jul-18 18:33N 29°47' W 092°10'0 0.0
2016-Jul-18 17:33N 29°47' W 092°10'0 0.0
2016-Jul-18 16:33N 29°47' W 092°10'0 0.0
2016-Jul-18 15:33N 29°47' W 092°10'0 0.0
2016-Jul-18 14:33N 29°47' W 092°10'0 0.0
2016-Jul-18 13:33N 29°47' W 092°10'1 0.8
2016-Jul-18 12:34N 29°47' W 092°11'0 0.4
2016-Jul-18 11:33N 29°47' W 092°11'7 6.5
2016-Jul-18 10:33N 29°41' W 092°15'7 7.0
2016-Jul-18 09:33N 29°35' W 092°18'  

Dump ship's entire track history